Stations météo

réclame
Mon MeteoGroup
San Vicente, Espagne (8017): Température de l'air & dewpoint: 08.08.2018 19:00:00 - 14.08.2018 19:00:00 (CEST)San Vicente, Espagne (8017): Vitesse du vent & gusts: 08.08.2018 19:00:00 - 14.08.2018 19:00:00 (CEST)San Vicente, Espagne (8017): Direction du vent: 08.08.2018 19:00:00 - 14.08.2018 19:00:00 (CEST)San Vicente, Espagne (8017): reduced air pressure: 08.08.2018 19:00:00 - 14.08.2018 19:00:00 (CEST)San Vicente, Espagne (8017): Quantités de précipitations: 08.08.2018 19:00:00 - 14.08.2018 19:00:00 (CEST)
Date & Time tt [°C] td [°C] ff [km/h] ff [knt] fx [km/h] fx [knt] dd ppp [hPa] rr [mm]
14.08.2018 19:00:00 - - - - - - - - -
14.08.2018 18:00:00 22,9 17,6 7 4 13 7 NE 1022,8 0,0
14.08.2018 17:00:00 22,5 17,0 8 4 14 8 NNE 1022,9 0,0
14.08.2018 16:00:00 22,9 17,6 8 4 14 8 NNE 1023,0 0,0
14.08.2018 15:00:00 22,6 17,9 8 4 16 9 N 1023,0 0,0
14.08.2018 14:00:00 22,7 18,2 6 4 16 9 NNW 1023,1 -
14.08.2018 13:00:00 22,7 17,4 10 5 19 10 NW 1023,1 0,0
14.08.2018 12:00:00 22,4 17,1 10 6 15 8 NW 1023,1 0,1
14.08.2018 11:00:00 21,7 17,3 7 4 13 7 WNW 1022,8 0,0
14.08.2018 10:00:00 20,0 17,4 1 1 9 5 SSW 1022,2 0,0
14.08.2018 09:00:00 18,5 16,5 5 3 12 6 SSW 1021,8 0,0
14.08.2018 08:00:00 18,8 16,8 4 2 14 8 WSW 1021,6 -
14.08.2018 07:00:00 18,2 16,4 5 3 18 10 SW 1021,1 0,0
14.08.2018 06:00:00 18,4 16,2 19 10 30 16 W 1020,7 0,0
14.08.2018 05:00:00 19,3 16,7 10 5 21 11 W 1020,7 0,0
14.08.2018 04:00:00 19,2 16,6 11 6 23 13 W 1020,4 0,0
14.08.2018 03:00:00 19,1 16,9 9 5 21 11 W 1020,3 0,0
14.08.2018 02:00:00 19,1 17,1 17 9 30 16 W 1020,4 -
14.08.2018 01:00:00 19,2 17,1 12 7 30 16 W 1020,4 0,0
14.08.2018 00:00:00 19,6 17,5 13 7 33 18 W 1020,0 0,0
13.08.2018 23:00:00 19,9 17,3 22 12 35 19 WNW 1019,9 0,0
13.08.2018 22:00:00 20,1 17,5 24 13 39 21 WNW 1019,4 0,0
13.08.2018 21:00:00 20,3 17,9 24 13 36 19 NW 1018,7 0,0
13.08.2018 20:00:00 20,5 17,7 23 12 36 19 WNW 1018,2 -
13.08.2018 19:00:00 20,5 17,9 27 14 39 21 WNW 1018,3 0,0
13.08.2018 18:00:00 21,2 18,0 24 13 40 22 WNW 1017,8 0,0
13.08.2018 17:00:00 21,4 17,6 27 15 37 20 NW 1017,9 0,0
13.08.2018 16:00:00 21,4 17,6 19 11 33 18 WNW 1017,8 0,0
13.08.2018 15:00:00 21,6 17,6 23 12 35 19 WNW 1017,7 0,0
13.08.2018 14:00:00 22,1 17,2 23 12 32 18 NW 1017,2 -
13.08.2018 13:00:00 22,1 17,1 22 12 34 18 NW 1017,3 0,0
13.08.2018 12:00:00 21,7 15,8 19 11 29 15 WNW 1017,2 0,0
13.08.2018 11:00:00 21,6 16,1 16 8 25 14 W 1016,8 0,1
13.08.2018 10:00:00 21,3 16,9 10 5 18 10 W 1016,6 0,0
13.08.2018 09:00:00 19,9 16,6 3 2 22 12 SW 1016,4 0,0
13.08.2018 08:00:00 18,8 16,2 9 5 23 12 W 1015,7 -
13.08.2018 07:00:00 18,5 16,3 4 2 13 7 SW 1015,3 0,0
13.08.2018 06:00:00 18,5 16,5 6 3 19 10 W 1015,3 0,0
13.08.2018 05:00:00 18,3 16,6 6 3 19 10 W 1015,4 0,0
13.08.2018 04:00:00 18,4 16,9 10 5 32 17 W 1015,5 0,2
13.08.2018 03:00:00 18,7 17,2 14 8 27 15 W 1015,5 0,3
13.08.2018 02:00:00 19,0 17,5 21 11 29 16 W 1015,9 -
13.08.2018 01:00:00 19,4 17,9 16 9 26 14 NW 1015,9 1,3
13.08.2018 00:00:00 19,8 18,3 12 6 28 15 WNW 1016,1 1,1
12.08.2018 23:00:00 20,2 18,5 11 6 29 16 WNW 1016,1 1,1
12.08.2018 22:00:00 21,9 18,7 12 6 21 11 WNW 1015,2 0,0
12.08.2018 21:00:00 22,6 17,9 1 1 8 4 SW 1014,6 0,0
12.08.2018 20:00:00 23,5 18,2 2 1 9 5 W 1014,1 -
12.08.2018 19:00:00 23,3 17,5 3 2 10 6 N 1014,4 0,0
12.08.2018 18:00:00 23,9 17,1 2 1 9 5 N 1014,4 0,0
12.08.2018 17:00:00 23,6 16,9 3 1 9 5 NW 1014,9 0,0
12.08.2018 16:00:00 23,4 16,6 5 3 14 7 NW 1015,1 0,0
12.08.2018 15:00:00 23,7 18,3 8 4 17 9 WNW 1015,3 0,0
12.08.2018 14:00:00 23,2 20,0 9 5 20 11 NW 1015,5 -
12.08.2018 13:00:00 22,8 19,6 12 6 21 11 NW 1015,5 0,0
12.08.2018 12:00:00 22,2 19,3 10 6 19 10 NW 1015,5 0,0
12.08.2018 11:00:00 22,0 19,2 9 5 16 9 NW 1015,3 0,0
12.08.2018 10:00:00 21,5 18,8 7 4 14 8 W 1015,6 0,0
12.08.2018 09:00:00 19,8 17,5 3 2 9 5 SSW 1015,7 0,0
12.08.2018 08:00:00 17,4 15,5 3 2 14 7 SSW 1015,6 -
12.08.2018 07:00:00 17,0 15,2 8 4 12 7 SW 1015,5 0,0
12.08.2018 06:00:00 17,3 15,6 9 5 13 7 SW 1015,2 0,0
12.08.2018 05:00:00 17,4 15,7 7 4 12 7 SW 1015,8 0,0
12.08.2018 04:00:00 17,3 15,4 8 4 11 6 S 1016,4 0,0
12.08.2018 03:00:00 18,4 16,7 8 5 14 7 SW 1017,1 0,0
12.08.2018 02:00:00 17,7 15,9 10 5 13 7 SSW 1017,7 -
12.08.2018 01:00:00 18,6 16,6 5 3 12 7 SW 1018,4 0,0
12.08.2018 00:00:00 19,3 17,3 8 4 11 6 SW 1019,0 0,0
11.08.2018 23:00:00 19,8 17,8 6 3 8 5 S 1019,3 0,0
11.08.2018 22:00:00 21,0 18,9 1 1 8 4 SE 1019,4 0,0
11.08.2018 21:00:00 21,6 19,1 6 3 13 7 ENE 1019,1 0,0
11.08.2018 20:00:00 22,4 19,2 9 5 13 7 ENE 1019,2 -
11.08.2018 19:00:00 23,0 19,6 7 4 16 9 ENE 1019,5 0,0
11.08.2018 18:00:00 22,7 19,1 12 7 22 12 ENE 1019,5 0,0
11.08.2018 17:00:00 22,8 19,3 16 8 25 14 ENE 1020,0 0,0
11.08.2018 16:00:00 22,3 18,7 19 11 29 15 ENE 1020,4 0,0
11.08.2018 15:00:00 22,4 18,8 20 11 29 15 ENE 1021,0 0,0
11.08.2018 14:00:00 22,3 18,7 21 11 28 15 ENE 1021,4 -
11.08.2018 13:00:00 22,5 18,2 13 7 19 10 ENE 1022,1 0,0
11.08.2018 12:00:00 21,6 17,6 9 5 15 8 ENE 1022,5 0,0
11.08.2018 11:00:00 20,0 16,2 4 2 6 4 NNE 1022,7 0,0
11.08.2018 10:00:00 19,3 15,8 3 2 11 6 S 1022,9 0,0
11.08.2018 09:00:00 16,3 14,1 8 5 15 8 SSW 1023,1 0,0
11.08.2018 08:00:00 14,5 12,7 11 6 16 9 SSW 1023,3 -
11.08.2018 07:00:00 14,4 12,7 11 6 14 8 SSW 1023,2 0,0
11.08.2018 06:00:00 14,9 13,3 10 6 16 8 SSW 1023,1 0,0
11.08.2018 05:00:00 15,0 13,4 12 6 15 8 SSW 1023,3 0,0
11.08.2018 04:00:00 15,3 13,7 11 6 15 8 SSW 1023,6 0,0
11.08.2018 03:00:00 16,0 14,1 10 5 12 6 SSW 1024,5 0,0
11.08.2018 02:00:00 16,6 14,6 10 5 11 6 SSW 1025,0 -
11.08.2018 01:00:00 17,1 15,1 8 5 11 6 S 1025,3 0,0
11.08.2018 00:00:00 18,0 16,0 8 4 14 7 S 1025,4 0,0
10.08.2018 23:00:00 19,4 15,9 8 4 14 7 SE 1025,3 0,0
10.08.2018 22:00:00 20,2 16,6 7 4 20 11 ESE 1024,8 0,0
10.08.2018 21:00:00 20,7 16,9 12 7 21 12 ENE 1024,7 0,0
10.08.2018 20:00:00 21,2 17,4 14 8 21 11 ENE 1024,6 -
10.08.2018 19:00:00 21,9 17,3 15 8 22 12 ENE 1024,7 0,0
10.08.2018 18:00:00 21,6 15,9 17 9 23 13 ENE 1024,7 0,0
10.08.2018 17:00:00 22,1 16,6 16 9 25 14 ENE 1024,8 0,0
10.08.2018 16:00:00 21,9 16,6 16 9 27 14 ENE 1024,9 0,0
10.08.2018 15:00:00 22,0 16,3 18 10 29 15 ENE 1025,0 0,0
10.08.2018 14:00:00 21,6 16,1 17 9 29 15 ENE 1024,5 -
10.08.2018 13:00:00 21,7 16,4 16 9 28 15 ENE 1024,4 0,0
10.08.2018 12:00:00 21,2 15,5 20 11 28 15 ENE 1024,4 0,0
10.08.2018 11:00:00 20,9 15,0 16 8 25 13 ENE 1024,7 0,0
10.08.2018 10:00:00 20,4 15,6 4 2 12 7 ESE 1025,1 0,0
10.08.2018 09:00:00 17,2 14,4 10 5 15 8 SSW 1025,4 0,0
10.08.2018 08:00:00 15,8 13,5 10 6 14 8 SSW 1024,9 -
10.08.2018 07:00:00 16,1 13,6 10 5 14 8 SSW 1024,8 0,0
10.08.2018 06:00:00 16,0 13,5 9 5 13 7 SSW 1024,8 0,0
10.08.2018 05:00:00 16,3 13,8 9 5 13 7 SSW 1024,8 0,0
10.08.2018 04:00:00 16,8 13,9 9 5 12 6 SSW 1025,0 0,0
10.08.2018 03:00:00 17,1 14,1 8 4 12 7 SW 1025,0 0,0
10.08.2018 02:00:00 17,1 14,3 8 5 13 7 S 1025,6 -
10.08.2018 01:00:00 17,4 14,3 5 3 12 6 SW 1025,6 0,0
10.08.2018 00:00:00 17,5 14,8 7 4 10 5 S 1025,5 0,1
09.08.2018 23:00:00 18,0 14,3 5 3 9 5 SSW 1025,3 0,0
09.08.2018 22:00:00 18,5 13,4 4 2 16 9 WSW 1024,6 0,0
09.08.2018 21:00:00 19,2 14,0 12 6 22 12 W 1024,1 0,0
09.08.2018 20:00:00 19,7 14,0 12 7 25 13 W 1023,8 -
09.08.2018 19:00:00 20,0 14,1 13 7 23 12 W 1023,8 0,0
09.08.2018 18:00:00 20,1 14,2 14 8 27 15 W 1023,6 0,0
09.08.2018 17:00:00 19,4 13,4 18 10 34 18 W 1023,4 0,0
09.08.2018 16:00:00 19,3 15,3 27 15 43 23 W 1023,2 0,0
09.08.2018 15:00:00 19,4 15,4 22 12 44 24 WNW 1022,7 0,0
09.08.2018 14:00:00 20,9 16,5 31 17 46 25 NW 1022,1 -
09.08.2018 13:00:00 20,6 14,9 22 12 35 19 WNW 1021,6 0,0
09.08.2018 12:00:00 20,5 15,3 23 12 38 21 W 1021,2 0,0
09.08.2018 11:00:00 18,9 15,8 25 13 40 22 WNW 1020,3 0,0
09.08.2018 10:00:00 19,2 15,3 18 10 35 19 W 1019,8 0,0
09.08.2018 09:00:00 17,5 14,2 6 3 15 8 SSW 1018,9 0,0
09.08.2018 08:00:00 15,4 13,3 9 5 16 9 SSW 1018,3 -
09.08.2018 07:00:00 15,2 13,1 5 3 15 8 SW 1017,7 0,0
09.08.2018 06:00:00 15,6 13,5 5 3 13 7 SW 1017,2 0,0
09.08.2018 05:00:00 16,2 13,4 6 3 11 6 SW 1016,8 0,0
09.08.2018 04:00:00 16,5 13,5 6 4 22 12 SSW 1016,4 0,0
09.08.2018 03:00:00 16,5 13,6 5 3 28 15 WSW 1016,1 0,0
09.08.2018 02:00:00 15,9 13,6 13 7 56 30 W 1016,1 -
09.08.2018 01:00:00 16,3 14,5 35 19 80 43 W 1016,6 2,1
09.08.2018 00:00:00 17,2 15,2 51 28 83 45 W 1015,1 0,1
08.08.2018 23:00:00 18,9 17,2 4 2 10 6 SW 1013,7 0,0
08.08.2018 22:00:00 19,0 17,3 4 2 12 7 S 1013,5 0,1
08.08.2018 21:00:00 19,3 17,6 3 1 10 5 WSW 1013,3 0,8
08.08.2018 20:00:00 19,6 17,8 5 3 10 5 S 1013,0 -
08.08.2018 19:00:00 20,6 18,4 3 2 10 5 E 1012,9 0,0

tt = Température de l'air
td = dewpoint
ff = Vitesse du vent
fx = gusts
dd = Direction du vent
ppp = reduced air pressure
rr = Quantités de précipitations

stations d'obs. à proximité